sensor_id;sensor_type;location;lat;lon;timestamp;temperature;humidity
17891;DHT22;9071;48.220;14.480;2023-03-25T00:04:53;11.30;99.90
17891;DHT22;9071;48.220;14.480;2023-03-25T00:09:57;11.30;99.90
17891;DHT22;9071;48.220;14.480;2023-03-25T00:14:59;11.30;99.90
17891;DHT22;9071;48.220;14.480;2023-03-25T00:20:01;11.30;99.90
17891;DHT22;9071;48.220;14.480;2023-03-25T00:25:13;11.30;99.90
17891;DHT22;9071;48.220;14.480;2023-03-25T00:30:18;11.30;99.90
17891;DHT22;9071;48.220;14.480;2023-03-25T00:35:21;11.30;99.90
17891;DHT22;9071;48.220;14.480;2023-03-25T00:40:25;11.40;99.90
17891;DHT22;9071;48.220;14.480;2023-03-25T00:45:29;11.40;99.90
17891;DHT22;9071;48.220;14.480;2023-03-25T00:50:31;11.40;99.90
17891;DHT22;9071;48.220;14.480;2023-03-25T00:55:34;11.30;99.90
17891;DHT22;9071;48.220;14.480;2023-03-25T01:00:36;11.20;99.90
17891;DHT22;9071;48.220;14.480;2023-03-25T01:05:38;11.10;99.90
17891;DHT22;9071;48.220;14.480;2023-03-25T01:10:43;11.00;99.90
17891;DHT22;9071;48.220;14.480;2023-03-25T01:15:45;10.90;99.90
17891;DHT22;9071;48.220;14.480;2023-03-25T01:20:47;10.90;99.90
17891;DHT22;9071;48.220;14.480;2023-03-25T01:25:51;10.90;99.90
17891;DHT22;9071;48.220;14.480;2023-03-25T01:30:59;10.80;99.90
17891;DHT22;9071;48.220;14.480;2023-03-25T01:36:02;10.70;99.90
17891;DHT22;9071;48.220;14.480;2023-03-25T01:41:07;10.70;99.90
17891;DHT22;9071;48.220;14.480;2023-03-25T01:46:11;10.70;99.90
17891;DHT22;9071;48.220;14.480;2023-03-25T01:51:17;10.70;99.90
17891;DHT22;9071;48.220;14.480;2023-03-25T01:56:25;10.60;99.90
17891;DHT22;9071;48.220;14.480;2023-03-25T02:01:31;10.50;99.90
17891;DHT22;9071;48.220;14.480;2023-03-25T02:06:37;10.40;99.90
17891;DHT22;9071;48.220;14.480;2023-03-25T02:11:43;10.30;99.90
17891;DHT22;9071;48.220;14.480;2023-03-25T02:16:51;10.10;99.90
17891;DHT22;9071;48.220;14.480;2023-03-25T02:27:51;9.70;99.90
17891;DHT22;9071;48.220;14.480;2023-03-25T02:33:17;9.60;99.90
17891;DHT22;9071;48.220;14.480;2023-03-25T02:38:34;9.50;99.90
17891;DHT22;9071;48.220;14.480;2023-03-25T02:43:40;9.30;99.90
17891;DHT22;9071;48.220;14.480;2023-03-25T02:48:50;9.30;99.90
17891;DHT22;9071;48.220;14.480;2023-03-25T02:53:59;9.40;99.90
17891;DHT22;9071;48.220;14.480;2023-03-25T02:59:03;9.50;99.90
17891;DHT22;9071;48.220;14.480;2023-03-25T03:04:07;9.60;99.90
17891;DHT22;9071;48.220;14.480;2023-03-25T03:09:24;9.60;99.90
17891;DHT22;9071;48.220;14.480;2023-03-25T03:14:36;9.60;99.90
17891;DHT22;9071;48.220;14.480;2023-03-25T03:19:48;9.70;99.90
17891;DHT22;9071;48.220;14.480;2023-03-25T03:25:00;9.60;99.90
17891;DHT22;9071;48.220;14.480;2023-03-25T03:30:05;9.60;99.90
17891;DHT22;9071;48.220;14.480;2023-03-25T03:35:14;9.40;99.90
17891;DHT22;9071;48.220;14.480;2023-03-25T03:40:21;9.20;99.90
17891;DHT22;9071;48.220;14.480;2023-03-25T03:45:30;9.00;99.90
17891;DHT22;9071;48.220;14.480;2023-03-25T03:50:38;8.90;99.90
17891;DHT22;9071;48.220;14.480;2023-03-25T03:55:45;8.90;99.90
17891;DHT22;9071;48.220;14.480;2023-03-25T04:00:55;8.80;99.90
17891;DHT22;9071;48.220;14.480;2023-03-25T04:06:02;8.80;99.90
17891;DHT22;9071;48.220;14.480;2023-03-25T04:11:10;8.90;99.90
17891;DHT22;9071;48.220;14.480;2023-03-25T04:16:16;9.10;99.90
17891;DHT22;9071;48.220;14.480;2023-03-25T04:21:18;9.20;99.90
17891;DHT22;9071;48.220;14.480;2023-03-25T04:26:22;9.20;99.90
17891;DHT22;9071;48.220;14.480;2023-03-25T04:31:24;9.10;99.90
17891;DHT22;9071;48.220;14.480;2023-03-25T04:36:30;8.90;99.90
17891;DHT22;9071;48.220;14.480;2023-03-25T04:41:39;8.90;99.90
17891;DHT22;9071;48.220;14.480;2023-03-25T04:46:41;8.90;99.90
17891;DHT22;9071;48.220;14.480;2023-03-25T04:51:43;8.80;99.90
17891;DHT22;9071;48.220;14.480;2023-03-25T04:56:47;8.60;99.90
17891;DHT22;9071;48.220;14.480;2023-03-25T05:01:50;8.50;99.90
17891;DHT22;9071;48.220;14.480;2023-03-25T05:06:53;8.60;99.90
17891;DHT22;9071;48.220;14.480;2023-03-25T05:11:57;8.50;99.90
17891;DHT22;9071;48.220;14.480;2023-03-25T05:17:00;8.50;99.90
17891;DHT22;9071;48.220;14.480;2023-03-25T05:22:02;8.40;99.90
17891;DHT22;9071;48.220;14.480;2023-03-25T05:27:05;8.50;99.90
17891;DHT22;9071;48.220;14.480;2023-03-25T05:32:07;8.80;99.90
17891;DHT22;9071;48.220;14.480;2023-03-25T05:37:09;9.10;99.90
17891;DHT22;9071;48.220;14.480;2023-03-25T05:42:14;9.60;99.90
17891;DHT22;9071;48.220;14.480;2023-03-25T05:47:16;11.10;99.90
17891;DHT22;9071;48.220;14.480;2023-03-25T05:52:19;11.30;99.90
17891;DHT22;9071;48.220;14.480;2023-03-25T05:57:25;11.10;99.90
17891;DHT22;9071;48.220;14.480;2023-03-25T06:02:27;10.90;99.90
17891;DHT22;9071;48.220;14.480;2023-03-25T06:07:30;11.20;99.90
17891;DHT22;9071;48.220;14.480;2023-03-25T06:12:33;11.10;99.90
17891;DHT22;9071;48.220;14.480;2023-03-25T06:17:38;10.90;99.90
17891;DHT22;9071;48.220;14.480;2023-03-25T06:22:42;10.90;99.90
17891;DHT22;9071;48.220;14.480;2023-03-25T06:27:47;10.90;99.90
17891;DHT22;9071;48.220;14.480;2023-03-25T06:32:49;10.80;99.90
17891;DHT22;9071;48.220;14.480;2023-03-25T06:37:51;10.80;99.90
17891;DHT22;9071;48.220;14.480;2023-03-25T06:42:55;10.80;99.90
17891;DHT22;9071;48.220;14.480;2023-03-25T06:47:57;10.80;99.90
17891;DHT22;9071;48.220;14.480;2023-03-25T06:52:59;10.80;99.90
17891;DHT22;9071;48.220;14.480;2023-03-25T06:58:04;10.90;99.90
17891;DHT22;9071;48.220;14.480;2023-03-25T07:03:06;10.90;99.90
17891;DHT22;9071;48.220;14.480;2023-03-25T07:08:08;10.90;99.90
17891;DHT22;9071;48.220;14.480;2023-03-25T07:13:12;11.00;99.90
17891;DHT22;9071;48.220;14.480;2023-03-25T07:18:14;11.30;99.90
17891;DHT22;9071;48.220;14.480;2023-03-25T07:23:16;11.80;99.90
17891;DHT22;9071;48.220;14.480;2023-03-25T07:28:19;12.20;99.90
17891;DHT22;9071;48.220;14.480;2023-03-25T07:33:21;12.60;99.90
17891;DHT22;9071;48.220;14.480;2023-03-25T07:38:23;12.60;99.90
17891;DHT22;9071;48.220;14.480;2023-03-25T07:43:27;12.60;99.90
17891;DHT22;9071;48.220;14.480;2023-03-25T07:48:30;12.30;99.90
17891;DHT22;9071;48.220;14.480;2023-03-25T07:53:32;12.00;99.90
17891;DHT22;9071;48.220;14.480;2023-03-25T07:58:35;11.90;99.90
17891;DHT22;9071;48.220;14.480;2023-03-25T08:03:38;11.90;99.90
17891;DHT22;9071;48.220;14.480;2023-03-25T08:08:40;12.10;99.90
17891;DHT22;9071;48.220;14.480;2023-03-25T08:13:43;11.90;99.90
17891;DHT22;9071;48.220;14.480;2023-03-25T08:18:45;11.60;99.90
17891;DHT22;9071;48.220;14.480;2023-03-25T08:23:47;11.70;99.90
17891;DHT22;9071;48.220;14.480;2023-03-25T08:28:51;11.80;99.90
17891;DHT22;9071;48.220;14.480;2023-03-25T08:33:55;11.70;99.90
17891;DHT22;9071;48.220;14.480;2023-03-25T08:38:57;11.30;99.90
17891;DHT22;9071;48.220;14.480;2023-03-25T08:44:02;11.30;99.90
17891;DHT22;9071;48.220;14.480;2023-03-25T08:49:04;12.10;99.90
17891;DHT22;9071;48.220;14.480;2023-03-25T08:54:07;12.50;99.90
17891;DHT22;9071;48.220;14.480;2023-03-25T08:59:10;12.70;99.90
17891;DHT22;9071;48.220;14.480;2023-03-25T09:04:13;13.20;99.90
17891;DHT22;9071;48.220;14.480;2023-03-25T09:09:15;13.40;99.90
17891;DHT22;9071;48.220;14.480;2023-03-25T09:14:19;13.80;99.90
17891;DHT22;9071;48.220;14.480;2023-03-25T09:19:21;13.60;99.90
17891;DHT22;9071;48.220;14.480;2023-03-25T09:24:23;13.50;99.90
17891;DHT22;9071;48.220;14.480;2023-03-25T09:29:27;13.30;99.90
17891;DHT22;9071;48.220;14.480;2023-03-25T09:34:29;13.80;99.90
17891;DHT22;9071;48.220;14.480;2023-03-25T09:39:31;13.90;99.90
17891;DHT22;9071;48.220;14.480;2023-03-25T09:44:42;14.20;99.90
17891;DHT22;9071;48.220;14.480;2023-03-25T09:49:53;13.80;99.90
17891;DHT22;9071;48.220;14.480;2023-03-25T09:54:59;13.90;99.90
17891;DHT22;9071;48.220;14.480;2023-03-25T10:00:05;14.40;99.90
17891;DHT22;9071;48.220;14.480;2023-03-25T10:05:21;13.90;99.90
17891;DHT22;9071;48.220;14.480;2023-03-25T10:10:29;14.20;99.90
17891;DHT22;9071;48.220;14.480;2023-03-25T10:15:41;15.00;99.90
17891;DHT22;9071;48.220;14.480;2023-03-25T10:20:51;15.30;99.90
17891;DHT22;9071;48.220;14.480;2023-03-25T10:26:02;15.60;99.90
17891;DHT22;9071;48.220;14.480;2023-03-25T10:31:12;16.10;99.90
17891;DHT22;9071;48.220;14.480;2023-03-25T10:36:17;16.00;99.90
17891;DHT22;9071;48.220;14.480;2023-03-25T10:41:25;16.00;99.90
17891;DHT22;9071;48.220;14.480;2023-03-25T10:46:30;16.20;99.90
17891;DHT22;9071;48.220;14.480;2023-03-25T10:51:34;15.80;99.90
17891;DHT22;9071;48.220;14.480;2023-03-25T10:56:40;15.40;99.90
17891;DHT22;9071;48.220;14.480;2023-03-25T11:01:44;15.10;99.90
17891;DHT22;9071;48.220;14.480;2023-03-25T11:06:52;15.00;99.90
17891;DHT22;9071;48.220;14.480;2023-03-25T11:11:58;14.50;99.90
17891;DHT22;9071;48.220;14.480;2023-03-25T11:17:06;14.50;99.90
17891;DHT22;9071;48.220;14.480;2023-03-25T11:22:15;14.90;99.90
17891;DHT22;9071;48.220;14.480;2023-03-25T11:27:22;15.00;99.90
17891;DHT22;9071;48.220;14.480;2023-03-25T11:32:32;14.40;99.90
17891;DHT22;9071;48.220;14.480;2023-03-25T11:37:41;14.40;99.90
17891;DHT22;9071;48.220;14.480;2023-03-25T11:42:45;14.40;99.90
17891;DHT22;9071;48.220;14.480;2023-03-25T11:47:57;14.70;99.90
17891;DHT22;9071;48.220;14.480;2023-03-25T11:53:02;15.70;99.90
17891;DHT22;9071;48.220;14.480;2023-03-25T11:58:05;16.00;99.90
17891;DHT22;9071;48.220;14.480;2023-03-25T12:03:19;16.00;99.90
17891;DHT22;9071;48.220;14.480;2023-03-25T12:08:22;16.20;99.90
17891;DHT22;9071;48.220;14.480;2023-03-25T12:13:31;16.30;99.90
17891;DHT22;9071;48.220;14.480;2023-03-25T12:18:52;15.80;99.90
17891;DHT22;9071;48.220;14.480;2023-03-25T12:24:08;15.70;99.90
17891;DHT22;9071;48.220;14.480;2023-03-25T12:29:18;15.70;99.90
17891;DHT22;9071;48.220;14.480;2023-03-25T12:34:33;16.00;99.90
17891;DHT22;9071;48.220;14.480;2023-03-25T12:39:47;16.50;99.90
17891;DHT22;9071;48.220;14.480;2023-03-25T12:45:05;16.60;99.90
17891;DHT22;9071;48.220;14.480;2023-03-25T12:55:50;15.40;99.90
17891;DHT22;9071;48.220;14.480;2023-03-25T13:01:02;15.80;99.90
17891;DHT22;9071;48.220;14.480;2023-03-25T13:06:16;16.30;99.90
17891;DHT22;9071;48.220;14.480;2023-03-25T13:11:24;15.50;99.90
17891;DHT22;9071;48.220;14.480;2023-03-25T13:16:30;14.90;99.90
17891;DHT22;9071;48.220;14.480;2023-03-25T13:21:35;14.90;99.90
17891;DHT22;9071;48.220;14.480;2023-03-25T13:26:41;14.90;99.90
17891;DHT22;9071;48.220;14.480;2023-03-25T13:31:45;14.90;99.90
17891;DHT22;9071;48.220;14.480;2023-03-25T13:36:58;14.90;99.90
17891;DHT22;9071;48.220;14.480;2023-03-25T13:42:06;15.00;99.90
17891;DHT22;9071;48.220;14.480;2023-03-25T13:47:16;15.20;99.90
17891;DHT22;9071;48.220;14.480;2023-03-25T13:52:21;15.50;99.90
17891;DHT22;9071;48.220;14.480;2023-03-25T13:58:04;15.00;99.90
17891;DHT22;9071;48.220;14.480;2023-03-25T14:03:41;14.70;99.90
17891;DHT22;9071;48.220;14.480;2023-03-25T14:14:45;14.30;99.90
17891;DHT22;9071;48.220;14.480;2023-03-25T14:19:51;12.60;99.90
17891;DHT22;9071;48.220;14.480;2023-03-25T14:24:55;12.30;99.90
17891;DHT22;9071;48.220;14.480;2023-03-25T14:30:01;12.30;99.90
17891;DHT22;9071;48.220;14.480;2023-03-25T14:40:58;13.90;99.90
17891;DHT22;9071;48.220;14.480;2023-03-25T14:46:13;14.30;99.90
17891;DHT22;9071;48.220;14.480;2023-03-25T14:51:42;14.40;99.90
17891;DHT22;9071;48.220;14.480;2023-03-25T14:56:59;14.30;99.90
17891;DHT22;9071;48.220;14.480;2023-03-25T15:02:09;14.40;99.90
17891;DHT22;9071;48.220;14.480;2023-03-25T15:07:17;14.30;99.90
17891;DHT22;9071;48.220;14.480;2023-03-25T15:12:23;14.20;99.90
17891;DHT22;9071;48.220;14.480;2023-03-25T15:17:42;14.10;99.90
17891;DHT22;9071;48.220;14.480;2023-03-25T15:23:21;14.10;99.90
17891;DHT22;9071;48.220;14.480;2023-03-25T15:28:49;14.20;99.90
17891;DHT22;9071;48.220;14.480;2023-03-25T15:34:14;14.40;99.90
17891;DHT22;9071;48.220;14.480;2023-03-25T15:39:34;14.10;99.90
17891;DHT22;9071;48.220;14.480;2023-03-25T15:44:49;13.80;99.90
17891;DHT22;9071;48.220;14.480;2023-03-25T15:55:26;12.80;99.90
17891;DHT22;9071;48.220;14.480;2023-03-25T16:00:31;12.20;99.90
17891;DHT22;9071;48.220;14.480;2023-03-25T16:05:38;11.90;99.90
17891;DHT22;9071;48.220;14.480;2023-03-25T16:10:41;11.60;99.90
17891;DHT22;9071;48.220;14.480;2023-03-25T16:15:46;11.10;99.90
17891;DHT22;9071;48.220;14.480;2023-03-25T16:20:53;10.50;99.90
17891;DHT22;9071;48.220;14.480;2023-03-25T16:25:56;9.60;99.90
17891;DHT22;9071;48.220;14.480;2023-03-25T16:30:58;9.00;99.90
17891;DHT22;9071;48.220;14.480;2023-03-25T16:36:05;8.80;99.90
17891;DHT22;9071;48.220;14.480;2023-03-25T16:41:11;8.90;99.90
17891;DHT22;9071;48.220;14.480;2023-03-25T16:46:14;9.00;99.90
17891;DHT22;9071;48.220;14.480;2023-03-25T16:51:21;9.00;99.90
17891;DHT22;9071;48.220;14.480;2023-03-25T16:56:27;9.00;99.90
17891;DHT22;9071;48.220;14.480;2023-03-25T17:01:32;8.80;99.90
17891;DHT22;9071;48.220;14.480;2023-03-25T17:06:40;8.80;99.90
17891;DHT22;9071;48.220;14.480;2023-03-25T17:11:46;8.80;99.90
17891;DHT22;9071;48.220;14.480;2023-03-25T17:16:51;8.80;99.90
17891;DHT22;9071;48.220;14.480;2023-03-25T17:22:04;8.90;99.90
17891;DHT22;9071;48.220;14.480;2023-03-25T17:27:26;8.90;99.90
17891;DHT22;9071;48.220;14.480;2023-03-25T17:32:40;8.90;99.90
17891;DHT22;9071;48.220;14.480;2023-03-25T17:37:47;8.80;99.90
17891;DHT22;9071;48.220;14.480;2023-03-25T17:42:50;8.80;99.90
17891;DHT22;9071;48.220;14.480;2023-03-25T17:47:52;9.00;99.90
17891;DHT22;9071;48.220;14.480;2023-03-25T17:52:55;8.90;99.90
17891;DHT22;9071;48.220;14.480;2023-03-25T17:57:58;8.50;99.90
17891;DHT22;9071;48.220;14.480;2023-03-25T18:03:00;8.20;99.90
17891;DHT22;9071;48.220;14.480;2023-03-25T18:08:04;8.00;99.90
17891;DHT22;9071;48.220;14.480;2023-03-25T18:13:06;8.00;99.90
17891;DHT22;9071;48.220;14.480;2023-03-25T18:18:13;7.90;99.90
17891;DHT22;9071;48.220;14.480;2023-03-25T18:23:18;7.90;99.90
17891;DHT22;9071;48.220;14.480;2023-03-25T18:28:20;7.90;99.90
17891;DHT22;9071;48.220;14.480;2023-03-25T18:33:23;7.90;99.90
17891;DHT22;9071;48.220;14.480;2023-03-25T18:38:27;7.90;99.90
17891;DHT22;9071;48.220;14.480;2023-03-25T18:43:29;7.70;99.90
17891;DHT22;9071;48.220;14.480;2023-03-25T18:48:31;7.40;99.90
17891;DHT22;9071;48.220;14.480;2023-03-25T18:53:35;7.30;99.90
17891;DHT22;9071;48.220;14.480;2023-03-25T18:58:37;7.30;99.90
17891;DHT22;9071;48.220;14.480;2023-03-25T19:03:39;7.10;99.90
17891;DHT22;9071;48.220;14.480;2023-03-25T19:08:43;6.90;99.90
17891;DHT22;9071;48.220;14.480;2023-03-25T19:13:45;6.70;99.90
17891;DHT22;9071;48.220;14.480;2023-03-25T19:18:48;6.50;99.90
17891;DHT22;9071;48.220;14.480;2023-03-25T19:23:51;6.50;99.90
17891;DHT22;9071;48.220;14.480;2023-03-25T19:28:53;6.80;99.90
17891;DHT22;9071;48.220;14.480;2023-03-25T19:33:55;6.90;99.90
17891;DHT22;9071;48.220;14.480;2023-03-25T19:38:59;6.80;99.90
17891;DHT22;9071;48.220;14.480;2023-03-25T19:44:05;6.90;99.90
17891;DHT22;9071;48.220;14.480;2023-03-25T19:49:07;7.00;99.90
17891;DHT22;9071;48.220;14.480;2023-03-25T19:54:10;7.00;99.90
17891;DHT22;9071;48.220;14.480;2023-03-25T19:59:14;6.90;99.90
17891;DHT22;9071;48.220;14.480;2023-03-25T20:04:17;6.70;99.90
17891;DHT22;9071;48.220;14.480;2023-03-25T20:09:21;6.50;99.90
17891;DHT22;9071;48.220;14.480;2023-03-25T20:14:23;6.40;99.90
17891;DHT22;9071;48.220;14.480;2023-03-25T20:19:25;6.50;99.90
17891;DHT22;9071;48.220;14.480;2023-03-25T20:24:29;6.50;99.90
17891;DHT22;9071;48.220;14.480;2023-03-25T20:29:31;6.40;99.90
17891;DHT22;9071;48.220;14.480;2023-03-25T20:34:33;6.30;99.90
17891;DHT22;9071;48.220;14.480;2023-03-25T20:39:39;6.30;99.90
17891;DHT22;9071;48.220;14.480;2023-03-25T20:44:41;6.20;99.90
17891;DHT22;9071;48.220;14.480;2023-03-25T20:49:45;6.00;99.90
17891;DHT22;9071;48.220;14.480;2023-03-25T20:54:48;6.00;99.90
17891;DHT22;9071;48.220;14.480;2023-03-25T20:59:50;5.90;99.90
17891;DHT22;9071;48.220;14.480;2023-03-25T21:04:53;6.00;99.90
17891;DHT22;9071;48.220;14.480;2023-03-25T21:09:59;6.00;99.90
17891;DHT22;9071;48.220;14.480;2023-03-25T21:15:01;6.10;99.90
17891;DHT22;9071;48.220;14.480;2023-03-25T21:20:05;6.10;99.90
17891;DHT22;9071;48.220;14.480;2023-03-25T21:25:09;6.00;99.90
17891;DHT22;9071;48.220;14.480;2023-03-25T21:30:13;5.90;99.90
17891;DHT22;9071;48.220;14.480;2023-03-25T21:35:15;5.80;99.90
17891;DHT22;9071;48.220;14.480;2023-03-25T21:40:19;5.80;99.90
17891;DHT22;9071;48.220;14.480;2023-03-25T21:45:22;5.70;99.90
17891;DHT22;9071;48.220;14.480;2023-03-25T21:50:25;5.70;99.90
17891;DHT22;9071;48.220;14.480;2023-03-25T21:55:29;5.60;99.90
17891;DHT22;9071;48.220;14.480;2023-03-25T22:00:32;5.40;99.90
17891;DHT22;9071;48.220;14.480;2023-03-25T22:05:34;5.40;99.90
17891;DHT22;9071;48.220;14.480;2023-03-25T22:10:37;5.30;99.90
17891;DHT22;9071;48.220;14.480;2023-03-25T22:15:40;5.40;99.90
17891;DHT22;9071;48.220;14.480;2023-03-25T22:20:42;5.40;99.90
17891;DHT22;9071;48.220;14.480;2023-03-25T22:25:45;5.50;99.90
17891;DHT22;9071;48.220;14.480;2023-03-25T22:30:47;5.80;99.90
17891;DHT22;9071;48.220;14.480;2023-03-25T22:35:49;6.10;99.90
17891;DHT22;9071;48.220;14.480;2023-03-25T22:40:53;6.30;99.90
17891;DHT22;9071;48.220;14.480;2023-03-25T22:45:55;6.30;99.90
17891;DHT22;9071;48.220;14.480;2023-03-25T22:50:57;6.20;99.90
17891;DHT22;9071;48.220;14.480;2023-03-25T22:56:01;6.00;99.90
17891;DHT22;9071;48.220;14.480;2023-03-25T23:01:05;5.90;99.90
17891;DHT22;9071;48.220;14.480;2023-03-25T23:06:08;5.80;99.90
17891;DHT22;9071;48.220;14.480;2023-03-25T23:11:15;5.60;99.90
17891;DHT22;9071;48.220;14.480;2023-03-25T23:16:19;5.50;99.90
17891;DHT22;9071;48.220;14.480;2023-03-25T23:21:23;5.40;99.90
17891;DHT22;9071;48.220;14.480;2023-03-25T23:26:31;5.30;99.90
17891;DHT22;9071;48.220;14.480;2023-03-25T23:31:37;5.10;99.90
17891;DHT22;9071;48.220;14.480;2023-03-25T23:36:41;5.10;99.90
17891;DHT22;9071;48.220;14.480;2023-03-25T23:41:44;5.10;99.90
17891;DHT22;9071;48.220;14.480;2023-03-25T23:46:46;4.90;99.90
17891;DHT22;9071;48.220;14.480;2023-03-25T23:51:50;4.90;99.90
17891;DHT22;9071;48.220;14.480;2023-03-25T23:56:54;4.90;99.90
